sensor_id;sensor_type;location;lat;lon;timestamp;temperature;humidity
16995;DHT22;8614;48.522;9.206;2023-08-06T00:00:39;15.30;99.90
16995;DHT22;8614;48.522;9.206;2023-08-06T00:03:06;15.20;99.90
16995;DHT22;8614;48.522;9.206;2023-08-06T00:05:33;15.20;99.90
16995;DHT22;8614;48.522;9.206;2023-08-06T00:07:59;15.20;99.90
16995;DHT22;8614;48.522;9.206;2023-08-06T00:10:28;15.20;99.90
16995;DHT22;8614;48.522;9.206;2023-08-06T00:12:54;15.10;99.90
16995;DHT22;8614;48.522;9.206;2023-08-06T00:15:22;15.10;99.90
16995;DHT22;8614;48.522;9.206;2023-08-06T00:17:49;15.10;99.90
16995;DHT22;8614;48.522;9.206;2023-08-06T00:20:15;15.00;99.90
16995;DHT22;8614;48.522;9.206;2023-08-06T00:22:42;15.00;99.90
16995;DHT22;8614;48.522;9.206;2023-08-06T00:25:09;15.00;99.90
16995;DHT22;8614;48.522;9.206;2023-08-06T00:27:37;14.90;99.90
16995;DHT22;8614;48.522;9.206;2023-08-06T00:30:05;14.90;99.90
16995;DHT22;8614;48.522;9.206;2023-08-06T00:32:32;14.90;99.90
16995;DHT22;8614;48.522;9.206;2023-08-06T00:34:59;14.80;99.90
16995;DHT22;8614;48.522;9.206;2023-08-06T00:37:26;14.80;99.90
16995;DHT22;8614;48.522;9.206;2023-08-06T00:39:53;14.70;99.90
16995;DHT22;8614;48.522;9.206;2023-08-06T00:42:19;14.80;99.90
16995;DHT22;8614;48.522;9.206;2023-08-06T00:44:49;14.80;99.90
16995;DHT22;8614;48.522;9.206;2023-08-06T00:47:16;14.70;99.90
16995;DHT22;8614;48.522;9.206;2023-08-06T00:49:44;14.70;99.90
16995;DHT22;8614;48.522;9.206;2023-08-06T00:52:11;14.70;99.90
16995;DHT22;8614;48.522;9.206;2023-08-06T00:54:39;14.60;99.90
16995;DHT22;8614;48.522;9.206;2023-08-06T00:57:07;14.50;99.90
16995;DHT22;8614;48.522;9.206;2023-08-06T00:59:34;14.60;99.90
16995;DHT22;8614;48.522;9.206;2023-08-06T01:02:02;14.50;99.90
16995;DHT22;8614;48.522;9.206;2023-08-06T01:04:29;14.50;99.90
16995;DHT22;8614;48.522;9.206;2023-08-06T01:07:05;14.40;99.90
16995;DHT22;8614;48.522;9.206;2023-08-06T01:09:41;14.40;99.90
16995;DHT22;8614;48.522;9.206;2023-08-06T01:12:25;14.40;99.90
16995;DHT22;8614;48.522;9.206;2023-08-06T01:15:07;14.30;99.90
16995;DHT22;8614;48.522;9.206;2023-08-06T01:17:37;14.30;99.90
16995;DHT22;8614;48.522;9.206;2023-08-06T01:20:05;14.30;99.90
16995;DHT22;8614;48.522;9.206;2023-08-06T01:22:33;14.20;99.90
16995;DHT22;8614;48.522;9.206;2023-08-06T01:25:00;14.20;99.90
16995;DHT22;8614;48.522;9.206;2023-08-06T01:27:30;14.20;99.90
16995;DHT22;8614;48.522;9.206;2023-08-06T01:30:03;14.10;99.90
16995;DHT22;8614;48.522;9.206;2023-08-06T01:32:35;14.10;99.90
16995;DHT22;8614;48.522;9.206;2023-08-06T01:35:05;14.00;99.90
16995;DHT22;8614;48.522;9.206;2023-08-06T01:37:34;14.00;99.90
16995;DHT22;8614;48.522;9.206;2023-08-06T01:40:06;14.00;99.90
16995;DHT22;8614;48.522;9.206;2023-08-06T01:42:33;13.90;99.90
16995;DHT22;8614;48.522;9.206;2023-08-06T01:44:59;13.80;99.90
16995;DHT22;8614;48.522;9.206;2023-08-06T01:47:26;13.80;99.90
16995;DHT22;8614;48.522;9.206;2023-08-06T01:49:53;13.80;99.90
16995;DHT22;8614;48.522;9.206;2023-08-06T01:52:20;13.70;99.90
16995;DHT22;8614;48.522;9.206;2023-08-06T01:54:48;13.60;99.90
16995;DHT22;8614;48.522;9.206;2023-08-06T01:57:15;13.50;99.90
16995;DHT22;8614;48.522;9.206;2023-08-06T01:59:42;13.50;99.90
16995;DHT22;8614;48.522;9.206;2023-08-06T02:02:08;13.40;99.90
16995;DHT22;8614;48.522;9.206;2023-08-06T02:04:35;13.40;99.90
16995;DHT22;8614;48.522;9.206;2023-08-06T02:07:02;13.40;99.90
16995;DHT22;8614;48.522;9.206;2023-08-06T02:09:29;13.40;99.90
16995;DHT22;8614;48.522;9.206;2023-08-06T02:11:57;13.30;99.90
16995;DHT22;8614;48.522;9.206;2023-08-06T02:14:24;13.30;99.90
16995;DHT22;8614;48.522;9.206;2023-08-06T02:16:51;13.30;99.90
16995;DHT22;8614;48.522;9.206;2023-08-06T02:19:18;13.20;99.90
16995;DHT22;8614;48.522;9.206;2023-08-06T02:21:46;13.20;99.90
16995;DHT22;8614;48.522;9.206;2023-08-06T02:24:12;13.10;99.90
16995;DHT22;8614;48.522;9.206;2023-08-06T02:26:39;13.10;99.90
16995;DHT22;8614;48.522;9.206;2023-08-06T02:29:07;13.10;99.90
16995;DHT22;8614;48.522;9.206;2023-08-06T02:31:34;13.10;99.90
16995;DHT22;8614;48.522;9.206;2023-08-06T02:34:01;13.10;99.90
16995;DHT22;8614;48.522;9.206;2023-08-06T02:36:28;13.00;99.90
16995;DHT22;8614;48.522;9.206;2023-08-06T02:38:55;13.00;99.90
16995;DHT22;8614;48.522;9.206;2023-08-06T02:41:22;13.00;99.90
16995;DHT22;8614;48.522;9.206;2023-08-06T02:43:49;13.00;99.90
16995;DHT22;8614;48.522;9.206;2023-08-06T02:46:17;13.00;99.90
16995;DHT22;8614;48.522;9.206;2023-08-06T02:48:44;13.00;99.90
16995;DHT22;8614;48.522;9.206;2023-08-06T02:51:12;13.00;99.90
16995;DHT22;8614;48.522;9.206;2023-08-06T02:53:39;13.10;99.90
16995;DHT22;8614;48.522;9.206;2023-08-06T02:56:09;13.10;99.90
16995;DHT22;8614;48.522;9.206;2023-08-06T02:58:48;13.10;99.90
16995;DHT22;8614;48.522;9.206;2023-08-06T03:01:34;13.10;99.90
16995;DHT22;8614;48.522;9.206;2023-08-06T03:04:07;13.20;99.90
16995;DHT22;8614;48.522;9.206;2023-08-06T03:06:39;13.30;99.90
16995;DHT22;8614;48.522;9.206;2023-08-06T03:09:06;13.30;99.90
16995;DHT22;8614;48.522;9.206;2023-08-06T03:11:33;13.40;99.90
16995;DHT22;8614;48.522;9.206;2023-08-06T03:14:05;13.50;99.90
16995;DHT22;8614;48.522;9.206;2023-08-06T03:16:33;13.50;99.90
16995;DHT22;8614;48.522;9.206;2023-08-06T03:19:01;13.50;99.90
16995;DHT22;8614;48.522;9.206;2023-08-06T03:21:27;13.50;99.90
16995;DHT22;8614;48.522;9.206;2023-08-06T03:23:54;13.40;99.90
16995;DHT22;8614;48.522;9.206;2023-08-06T03:26:24;13.50;99.90
16995;DHT22;8614;48.522;9.206;2023-08-06T03:28:51;13.50;99.90
16995;DHT22;8614;48.522;9.206;2023-08-06T03:31:19;13.50;99.90
16995;DHT22;8614;48.522;9.206;2023-08-06T03:33:47;13.50;99.90
16995;DHT22;8614;48.522;9.206;2023-08-06T03:36:16;13.50;99.90
16995;DHT22;8614;48.522;9.206;2023-08-06T03:38:43;13.60;99.90
16995;DHT22;8614;48.522;9.206;2023-08-06T03:41:12;13.60;99.90
16995;DHT22;8614;48.522;9.206;2023-08-06T03:43:39;13.70;99.90
16995;DHT22;8614;48.522;9.206;2023-08-06T03:46:11;13.70;99.90
16995;DHT22;8614;48.522;9.206;2023-08-06T03:48:38;13.70;99.90
16995;DHT22;8614;48.522;9.206;2023-08-06T03:51:06;13.80;99.90
16995;DHT22;8614;48.522;9.206;2023-08-06T03:53:33;13.80;99.90
16995;DHT22;8614;48.522;9.206;2023-08-06T03:56:00;13.80;99.90
16995;DHT22;8614;48.522;9.206;2023-08-06T03:58:29;13.80;99.90
16995;DHT22;8614;48.522;9.206;2023-08-06T04:00:59;13.90;99.90
16995;DHT22;8614;48.522;9.206;2023-08-06T04:03:29;13.90;99.90
16995;DHT22;8614;48.522;9.206;2023-08-06T04:05:56;13.90;99.90
16995;DHT22;8614;48.522;9.206;2023-08-06T04:08:24;14.00;99.90
16995;DHT22;8614;48.522;9.206;2023-08-06T04:10:51;14.10;99.90
16995;DHT22;8614;48.522;9.206;2023-08-06T04:13:19;14.20;99.90
16995;DHT22;8614;48.522;9.206;2023-08-06T04:15:46;14.30;99.90
16995;DHT22;8614;48.522;9.206;2023-08-06T04:18:14;14.20;99.90
16995;DHT22;8614;48.522;9.206;2023-08-06T04:20:44;14.20;99.90
16995;DHT22;8614;48.522;9.206;2023-08-06T04:23:11;14.30;99.90
16995;DHT22;8614;48.522;9.206;2023-08-06T04:25:42;14.20;99.90
16995;DHT22;8614;48.522;9.206;2023-08-06T04:28:09;14.20;99.90
16995;DHT22;8614;48.522;9.206;2023-08-06T04:30:37;14.20;99.90
16995;DHT22;8614;48.522;9.206;2023-08-06T04:33:04;14.30;99.90
16995;DHT22;8614;48.522;9.206;2023-08-06T04:35:32;14.30;99.90
16995;DHT22;8614;48.522;9.206;2023-08-06T04:37:59;14.30;99.90
16995;DHT22;8614;48.522;9.206;2023-08-06T04:40:27;14.30;99.90
16995;DHT22;8614;48.522;9.206;2023-08-06T04:42:55;14.30;99.90
16995;DHT22;8614;48.522;9.206;2023-08-06T04:45:22;14.30;99.90
16995;DHT22;8614;48.522;9.206;2023-08-06T04:47:49;14.30;99.90
16995;DHT22;8614;48.522;9.206;2023-08-06T04:50:16;14.30;99.90
16995;DHT22;8614;48.522;9.206;2023-08-06T04:52:43;14.30;99.90
16995;DHT22;8614;48.522;9.206;2023-08-06T04:55:10;14.30;99.90
16995;DHT22;8614;48.522;9.206;2023-08-06T04:57:37;14.20;99.90
16995;DHT22;8614;48.522;9.206;2023-08-06T05:00:06;14.30;99.90
16995;DHT22;8614;48.522;9.206;2023-08-06T05:02:33;14.30;99.90
16995;DHT22;8614;48.522;9.206;2023-08-06T05:05:04;14.40;99.90
16995;DHT22;8614;48.522;9.206;2023-08-06T05:07:31;14.40;99.90
16995;DHT22;8614;48.522;9.206;2023-08-06T05:09:57;14.50;99.90
16995;DHT22;8614;48.522;9.206;2023-08-06T05:12:24;14.50;99.90
16995;DHT22;8614;48.522;9.206;2023-08-06T05:14:51;14.60;99.90
16995;DHT22;8614;48.522;9.206;2023-08-06T05:17:19;14.60;99.90
16995;DHT22;8614;48.522;9.206;2023-08-06T05:19:48;14.80;99.90
16995;DHT22;8614;48.522;9.206;2023-08-06T05:22:15;15.00;99.90
16995;DHT22;8614;48.522;9.206;2023-08-06T05:24:42;15.30;99.90
16995;DHT22;8614;48.522;9.206;2023-08-06T05:27:08;15.50;99.90
16995;DHT22;8614;48.522;9.206;2023-08-06T05:29:35;15.60;99.90
16995;DHT22;8614;48.522;9.206;2023-08-06T05:32:02;15.60;99.90
16995;DHT22;8614;48.522;9.206;2023-08-06T05:34:30;15.70;99.90
16995;DHT22;8614;48.522;9.206;2023-08-06T05:36:57;16.00;99.90
16995;DHT22;8614;48.522;9.206;2023-08-06T05:39:24;16.40;99.90
16995;DHT22;8614;48.522;9.206;2023-08-06T05:41:53;16.60;99.90
16995;DHT22;8614;48.522;9.206;2023-08-06T05:44:20;16.60;99.90
16995;DHT22;8614;48.522;9.206;2023-08-06T05:46:48;16.50;99.90
16995;DHT22;8614;48.522;9.206;2023-08-06T05:49:15;16.40;99.90
16995;DHT22;8614;48.522;9.206;2023-08-06T05:51:43;16.30;99.90
16995;DHT22;8614;48.522;9.206;2023-08-06T05:54:10;16.30;99.90
16995;DHT22;8614;48.522;9.206;2023-08-06T05:56:37;16.40;99.90
16995;DHT22;8614;48.522;9.206;2023-08-06T05:59:04;16.40;99.90
16995;DHT22;8614;48.522;9.206;2023-08-06T06:01:30;16.40;99.90
16995;DHT22;8614;48.522;9.206;2023-08-06T06:03:57;16.30;99.90
16995;DHT22;8614;48.522;9.206;2023-08-06T06:06:24;16.20;99.90
16995;DHT22;8614;48.522;9.206;2023-08-06T06:08:52;16.10;99.90
16995;DHT22;8614;48.522;9.206;2023-08-06T06:11:19;16.00;99.90
16995;DHT22;8614;48.522;9.206;2023-08-06T06:13:48;15.90;99.90
16995;DHT22;8614;48.522;9.206;2023-08-06T06:16:14;15.90;99.90
16995;DHT22;8614;48.522;9.206;2023-08-06T06:18:41;16.00;99.90
16995;DHT22;8614;48.522;9.206;2023-08-06T06:21:09;16.10;99.90
16995;DHT22;8614;48.522;9.206;2023-08-06T06:23:36;16.20;99.90
16995;DHT22;8614;48.522;9.206;2023-08-06T06:26:04;16.20;99.90
16995;DHT22;8614;48.522;9.206;2023-08-06T06:28:31;16.40;99.90
16995;DHT22;8614;48.522;9.206;2023-08-06T06:31:00;16.60;99.90
16995;DHT22;8614;48.522;9.206;2023-08-06T06:33:26;16.90;99.90
16995;DHT22;8614;48.522;9.206;2023-08-06T06:35:53;17.00;99.90
16995;DHT22;8614;48.522;9.206;2023-08-06T06:38:20;17.00;99.90
16995;DHT22;8614;48.522;9.206;2023-08-06T06:40:53;17.00;99.90
16995;DHT22;8614;48.522;9.206;2023-08-06T06:43:22;16.80;99.90
16995;DHT22;8614;48.522;9.206;2023-08-06T06:45:52;16.70;99.90
16995;DHT22;8614;48.522;9.206;2023-08-06T06:48:19;16.60;99.90
16995;DHT22;8614;48.522;9.206;2023-08-06T06:50:47;16.60;99.90
16995;DHT22;8614;48.522;9.206;2023-08-06T06:53:14;16.60;99.90
16995;DHT22;8614;48.522;9.206;2023-08-06T06:55:43;16.60;99.90
16995;DHT22;8614;48.522;9.206;2023-08-06T06:58:09;16.60;99.90
16995;DHT22;8614;48.522;9.206;2023-08-06T07:00:38;16.50;99.90
16995;DHT22;8614;48.522;9.206;2023-08-06T07:03:05;16.50;99.90
16995;DHT22;8614;48.522;9.206;2023-08-06T07:05:32;16.50;99.90
16995;DHT22;8614;48.522;9.206;2023-08-06T07:07:59;16.50;99.90
16995;DHT22;8614;48.522;9.206;2023-08-06T07:10:26;16.50;99.90
16995;DHT22;8614;48.522;9.206;2023-08-06T07:12:53;16.60;99.90
16995;DHT22;8614;48.522;9.206;2023-08-06T07:15:20;16.80;99.90
16995;DHT22;8614;48.522;9.206;2023-08-06T07:17:48;17.10;99.90
16995;DHT22;8614;48.522;9.206;2023-08-06T07:20:15;17.30;99.90
16995;DHT22;8614;48.522;9.206;2023-08-06T07:22:41;17.50;99.90
16995;DHT22;8614;48.522;9.206;2023-08-06T07:25:10;17.60;99.90
16995;DHT22;8614;48.522;9.206;2023-08-06T07:27:38;17.70;99.90
16995;DHT22;8614;48.522;9.206;2023-08-06T07:30:06;17.40;99.90
16995;DHT22;8614;48.522;9.206;2023-08-06T07:32:33;17.20;99.90
16995;DHT22;8614;48.522;9.206;2023-08-06T07:35:01;16.90;99.90
16995;DHT22;8614;48.522;9.206;2023-08-06T07:37:28;16.70;99.90
16995;DHT22;8614;48.522;9.206;2023-08-06T07:39:55;16.60;99.90
16995;DHT22;8614;48.522;9.206;2023-08-06T07:42:22;16.40;99.90
16995;DHT22;8614;48.522;9.206;2023-08-06T07:44:51;16.30;99.90
16995;DHT22;8614;48.522;9.206;2023-08-06T07:47:18;16.10;99.90
16995;DHT22;8614;48.522;9.206;2023-08-06T07:49:45;16.10;99.90
16995;DHT22;8614;48.522;9.206;2023-08-06T07:52:13;16.00;99.90
16995;DHT22;8614;48.522;9.206;2023-08-06T07:54:40;16.10;99.90
16995;DHT22;8614;48.522;9.206;2023-08-06T07:57:07;16.10;99.90
16995;DHT22;8614;48.522;9.206;2023-08-06T07:59:34;16.10;99.90
16995;DHT22;8614;48.522;9.206;2023-08-06T08:02:00;16.10;99.90
16995;DHT22;8614;48.522;9.206;2023-08-06T08:04:27;16.10;99.90
16995;DHT22;8614;48.522;9.206;2023-08-06T08:06:54;16.20;99.90
16995;DHT22;8614;48.522;9.206;2023-08-06T08:09:22;16.10;99.90
16995;DHT22;8614;48.522;9.206;2023-08-06T08:11:49;16.20;99.90
16995;DHT22;8614;48.522;9.206;2023-08-06T08:14:18;16.20;99.90
16995;DHT22;8614;48.522;9.206;2023-08-06T08:16:44;16.30;99.90
16995;DHT22;8614;48.522;9.206;2023-08-06T08:19:11;16.40;99.90
16995;DHT22;8614;48.522;9.206;2023-08-06T08:21:38;16.50;99.90
16995;DHT22;8614;48.522;9.206;2023-08-06T08:24:05;16.40;99.90
16995;DHT22;8614;48.522;9.206;2023-08-06T08:26:33;16.40;99.90
16995;DHT22;8614;48.522;9.206;2023-08-06T08:29:00;16.40;99.90
16995;DHT22;8614;48.522;9.206;2023-08-06T08:31:26;16.20;99.90
16995;DHT22;8614;48.522;9.206;2023-08-06T08:33:54;16.20;99.90
16995;DHT22;8614;48.522;9.206;2023-08-06T08:36:21;16.30;99.90
16995;DHT22;8614;48.522;9.206;2023-08-06T08:38:47;16.50;99.90
16995;DHT22;8614;48.522;9.206;2023-08-06T08:41:15;16.60;99.90
16995;DHT22;8614;48.522;9.206;2023-08-06T08:43:44;16.70;99.90
16995;DHT22;8614;48.522;9.206;2023-08-06T08:46:11;16.80;99.90
16995;DHT22;8614;48.522;9.206;2023-08-06T08:48:39;16.80;99.90
16995;DHT22;8614;48.522;9.206;2023-08-06T08:51:06;16.80;99.90
16995;DHT22;8614;48.522;9.206;2023-08-06T08:53:35;17.00;99.90
16995;DHT22;8614;48.522;9.206;2023-08-06T08:56:05;17.20;99.90
16995;DHT22;8614;48.522;9.206;2023-08-06T08:58:32;17.20;99.90
16995;DHT22;8614;48.522;9.206;2023-08-06T09:01:01;17.30;99.90
16995;DHT22;8614;48.522;9.206;2023-08-06T09:03:28;17.30;99.90
16995;DHT22;8614;48.522;9.206;2023-08-06T09:05:57;17.20;99.90
16995;DHT22;8614;48.522;9.206;2023-08-06T09:08:30;17.10;99.90
16995;DHT22;8614;48.522;9.206;2023-08-06T09:10:58;17.00;99.90
16995;DHT22;8614;48.522;9.206;2023-08-06T09:13:27;17.00;99.90
16995;DHT22;8614;48.522;9.206;2023-08-06T09:15:54;16.90;99.90
16995;DHT22;8614;48.522;9.206;2023-08-06T09:18:26;16.90;99.90
16995;DHT22;8614;48.522;9.206;2023-08-06T09:20:54;17.00;99.90
16995;DHT22;8614;48.522;9.206;2023-08-06T09:23:21;17.10;99.90
16995;DHT22;8614;48.522;9.206;2023-08-06T09:25:53;17.20;99.90
16995;DHT22;8614;48.522;9.206;2023-08-06T09:28:20;17.60;99.90
16995;DHT22;8614;48.522;9.206;2023-08-06T09:30:47;18.00;99.90
16995;DHT22;8614;48.522;9.206;2023-08-06T09:33:17;18.50;99.90
16995;DHT22;8614;48.522;9.206;2023-08-06T09:35:47;18.60;99.90
16995;DHT22;8614;48.522;9.206;2023-08-06T09:38:14;18.70;99.90
16995;DHT22;8614;48.522;9.206;2023-08-06T09:40:40;18.60;99.90
16995;DHT22;8614;48.522;9.206;2023-08-06T09:43:07;18.90;99.90
16995;DHT22;8614;48.522;9.206;2023-08-06T09:45:36;18.90;99.90
16995;DHT22;8614;48.522;9.206;2023-08-06T09:48:03;18.80;99.90
16995;DHT22;8614;48.522;9.206;2023-08-06T09:50:32;18.70;99.90
16995;DHT22;8614;48.522;9.206;2023-08-06T09:53:00;18.50;99.90
16995;DHT22;8614;48.522;9.206;2023-08-06T09:55:27;18.30;99.90
16995;DHT22;8614;48.522;9.206;2023-08-06T09:57:55;18.00;99.90
16995;DHT22;8614;48.522;9.206;2023-08-06T10:00:22;17.80;99.90
16995;DHT22;8614;48.522;9.206;2023-08-06T10:02:49;17.90;99.90
16995;DHT22;8614;48.522;9.206;2023-08-06T10:05:21;17.90;99.90
16995;DHT22;8614;48.522;9.206;2023-08-06T10:07:49;18.10;99.90
16995;DHT22;8614;48.522;9.206;2023-08-06T10:10:17;18.20;99.90
16995;DHT22;8614;48.522;9.206;2023-08-06T10:12:48;18.00;99.90
16995;DHT22;8614;48.522;9.206;2023-08-06T10:15:17;17.70;99.90
16995;DHT22;8614;48.522;9.206;2023-08-06T10:17:50;17.40;99.90
16995;DHT22;8614;48.522;9.206;2023-08-06T10:20:18;17.10;99.90
16995;DHT22;8614;48.522;9.206;2023-08-06T10:22:46;16.80;99.90
16995;DHT22;8614;48.522;9.206;2023-08-06T10:25:30;16.60;99.90
16995;DHT22;8614;48.522;9.206;2023-08-06T10:27:58;16.50;99.90
16995;DHT22;8614;48.522;9.206;2023-08-06T10:30:26;16.60;99.90
16995;DHT22;8614;48.522;9.206;2023-08-06T10:32:55;16.70;99.90
16995;DHT22;8614;48.522;9.206;2023-08-06T10:35:35;16.80;99.90
16995;DHT22;8614;48.522;9.206;2023-08-06T10:38:08;17.10;99.90
16995;DHT22;8614;48.522;9.206;2023-08-06T10:40:39;17.20;99.90
16995;DHT22;8614;48.522;9.206;2023-08-06T10:43:06;17.30;99.90
16995;DHT22;8614;48.522;9.206;2023-08-06T10:45:36;17.30;99.90
16995;DHT22;8614;48.522;9.206;2023-08-06T10:48:04;17.40;99.90
16995;DHT22;8614;48.522;9.206;2023-08-06T10:50:31;17.40;99.90
16995;DHT22;8614;48.522;9.206;2023-08-06T10:53:04;17.40;99.90
16995;DHT22;8614;48.522;9.206;2023-08-06T10:55:31;17.30;99.90
16995;DHT22;8614;48.522;9.206;2023-08-06T10:57:59;17.40;99.90
16995;DHT22;8614;48.522;9.206;2023-08-06T11:00:26;17.30;99.90
16995;DHT22;8614;48.522;9.206;2023-08-06T11:02:53;17.30;99.90
16995;DHT22;8614;48.522;9.206;2023-08-06T11:05:20;17.30;99.90
16995;DHT22;8614;48.522;9.206;2023-08-06T11:07:47;17.50;99.90
16995;DHT22;8614;48.522;9.206;2023-08-06T11:10:15;17.70;99.90
16995;DHT22;8614;48.522;9.206;2023-08-06T11:12:42;17.90;99.90
16995;DHT22;8614;48.522;9.206;2023-08-06T11:15:11;18.00;99.90
16995;DHT22;8614;48.522;9.206;2023-08-06T11:17:39;17.90;99.90
16995;DHT22;8614;48.522;9.206;2023-08-06T11:20:07;17.60;99.90
16995;DHT22;8614;48.522;9.206;2023-08-06T11:22:36;17.40;99.90
16995;DHT22;8614;48.522;9.206;2023-08-06T11:25:03;17.30;99.90
16995;DHT22;8614;48.522;9.206;2023-08-06T11:27:30;17.00;99.90
16995;DHT22;8614;48.522;9.206;2023-08-06T11:29:56;17.10;99.90
16995;DHT22;8614;48.522;9.206;2023-08-06T11:32:24;17.10;99.90
16995;DHT22;8614;48.522;9.206;2023-08-06T11:34:53;17.00;99.90
16995;DHT22;8614;48.522;9.206;2023-08-06T11:37:21;17.00;99.90
16995;DHT22;8614;48.522;9.206;2023-08-06T11:39:49;16.80;99.90
16995;DHT22;8614;48.522;9.206;2023-08-06T11:42:16;16.90;99.90
16995;DHT22;8614;48.522;9.206;2023-08-06T11:44:43;16.80;99.90
16995;DHT22;8614;48.522;9.206;2023-08-06T11:47:13;16.80;99.90
16995;DHT22;8614;48.522;9.206;2023-08-06T11:49:43;16.80;99.90
16995;DHT22;8614;48.522;9.206;2023-08-06T11:52:15;16.80;99.90
16995;DHT22;8614;48.522;9.206;2023-08-06T11:54:44;17.10;99.90
16995;DHT22;8614;48.522;9.206;2023-08-06T11:57:11;17.40;99.90
16995;DHT22;8614;48.522;9.206;2023-08-06T11:59:38;17.60;99.90
16995;DHT22;8614;48.522;9.206;2023-08-06T12:02:08;17.80;99.90
16995;DHT22;8614;48.522;9.206;2023-08-06T12:04:58;17.80;99.90
16995;DHT22;8614;48.522;9.206;2023-08-06T12:07:27;17.90;99.90
16995;DHT22;8614;48.522;9.206;2023-08-06T12:09:54;17.80;99.90
16995;DHT22;8614;48.522;9.206;2023-08-06T12:12:20;17.90;99.90
16995;DHT22;8614;48.522;9.206;2023-08-06T12:14:47;17.80;99.90
16995;DHT22;8614;48.522;9.206;2023-08-06T12:17:14;17.80;99.90
16995;DHT22;8614;48.522;9.206;2023-08-06T12:19:41;17.90;99.90
16995;DHT22;8614;48.522;9.206;2023-08-06T12:22:09;17.80;99.90
16995;DHT22;8614;48.522;9.206;2023-08-06T12:24:35;17.70;99.90
16995;DHT22;8614;48.522;9.206;2023-08-06T12:27:02;17.60;99.90
16995;DHT22;8614;48.522;9.206;2023-08-06T12:29:29;17.40;99.90
16995;DHT22;8614;48.522;9.206;2023-08-06T12:31:56;17.40;99.90
16995;DHT22;8614;48.522;9.206;2023-08-06T12:34:23;17.40;99.90
16995;DHT22;8614;48.522;9.206;2023-08-06T12:36:50;17.40;99.90
16995;DHT22;8614;48.522;9.206;2023-08-06T12:39:18;17.40;99.90
16995;DHT22;8614;48.522;9.206;2023-08-06T12:41:45;17.40;99.90
16995;DHT22;8614;48.522;9.206;2023-08-06T12:44:12;17.30;99.90
16995;DHT22;8614;48.522;9.206;2023-08-06T12:46:39;17.30;99.90
16995;DHT22;8614;48.522;9.206;2023-08-06T12:49:06;17.40;99.90
16995;DHT22;8614;48.522;9.206;2023-08-06T12:51:32;17.50;99.90
16995;DHT22;8614;48.522;9.206;2023-08-06T12:54:00;17.50;99.90
16995;DHT22;8614;48.522;9.206;2023-08-06T12:56:28;17.50;99.90
16995;DHT22;8614;48.522;9.206;2023-08-06T12:58:55;17.40;99.90
16995;DHT22;8614;48.522;9.206;2023-08-06T13:01:22;17.50;99.90
16995;DHT22;8614;48.522;9.206;2023-08-06T13:03:48;17.60;99.90
16995;DHT22;8614;48.522;9.206;2023-08-06T13:06:15;17.70;99.90
16995;DHT22;8614;48.522;9.206;2023-08-06T13:08:42;17.70;99.90
16995;DHT22;8614;48.522;9.206;2023-08-06T13:11:09;17.50;99.90
16995;DHT22;8614;48.522;9.206;2023-08-06T13:13:37;17.30;99.90
16995;DHT22;8614;48.522;9.206;2023-08-06T13:16:04;17.30;99.90
16995;DHT22;8614;48.522;9.206;2023-08-06T13:18:34;17.30;99.90
16995;DHT22;8614;48.522;9.206;2023-08-06T13:21:01;17.50;99.90
16995;DHT22;8614;48.522;9.206;2023-08-06T13:23:27;17.90;99.90
16995;DHT22;8614;48.522;9.206;2023-08-06T13:25:54;18.00;99.90
16995;DHT22;8614;48.522;9.206;2023-08-06T13:28:21;18.10;99.90
16995;DHT22;8614;48.522;9.206;2023-08-06T13:30:50;18.20;99.90
16995;DHT22;8614;48.522;9.206;2023-08-06T13:33:16;18.30;99.90
16995;DHT22;8614;48.522;9.206;2023-08-06T13:35:43;18.40;99.90
16995;DHT22;8614;48.522;9.206;2023-08-06T13:38:10;18.30;99.90
16995;DHT22;8614;48.522;9.206;2023-08-06T13:40:37;18.40;99.90
16995;DHT22;8614;48.522;9.206;2023-08-06T13:43:04;18.20;99.90
16995;DHT22;8614;48.522;9.206;2023-08-06T13:45:30;18.20;99.90
16995;DHT22;8614;48.522;9.206;2023-08-06T13:48:01;18.10;99.90
16995;DHT22;8614;48.522;9.206;2023-08-06T13:50:29;17.70;99.90
16995;DHT22;8614;48.522;9.206;2023-08-06T13:52:56;17.50;99.90
16995;DHT22;8614;48.522;9.206;2023-08-06T13:55:22;17.30;99.90
16995;DHT22;8614;48.522;9.206;2023-08-06T13:57:49;17.10;99.90
16995;DHT22;8614;48.522;9.206;2023-08-06T14:00:16;17.10;99.90
16995;DHT22;8614;48.522;9.206;2023-08-06T14:02:43;17.10;99.90
16995;DHT22;8614;48.522;9.206;2023-08-06T14:05:11;17.10;99.90
16995;DHT22;8614;48.522;9.206;2023-08-06T14:07:38;17.00;99.90
16995;DHT22;8614;48.522;9.206;2023-08-06T14:10:06;17.20;99.90
16995;DHT22;8614;48.522;9.206;2023-08-06T14:12:34;17.30;99.90
16995;DHT22;8614;48.522;9.206;2023-08-06T14:15:01;17.30;99.90
16995;DHT22;8614;48.522;9.206;2023-08-06T14:17:29;17.40;99.90
16995;DHT22;8614;48.522;9.206;2023-08-06T14:19:56;17.60;99.90
16995;DHT22;8614;48.522;9.206;2023-08-06T14:22:24;17.70;99.90
16995;DHT22;8614;48.522;9.206;2023-08-06T14:24:51;17.70;99.90
16995;DHT22;8614;48.522;9.206;2023-08-06T14:27:18;17.70;99.90
16995;DHT22;8614;48.522;9.206;2023-08-06T14:29:45;17.70;99.90
16995;DHT22;8614;48.522;9.206;2023-08-06T14:32:12;17.70;99.90
16995;DHT22;8614;48.522;9.206;2023-08-06T14:34:39;17.70;99.90
16995;DHT22;8614;48.522;9.206;2023-08-06T14:37:05;17.60;99.90
16995;DHT22;8614;48.522;9.206;2023-08-06T14:39:34;17.30;99.90
16995;DHT22;8614;48.522;9.206;2023-08-06T14:42:00;17.00;99.90
16995;DHT22;8614;48.522;9.206;2023-08-06T14:44:27;16.70;99.90
16995;DHT22;8614;48.522;9.206;2023-08-06T14:46:54;16.70;99.90
16995;DHT22;8614;48.522;9.206;2023-08-06T14:49:21;16.80;99.90
16995;DHT22;8614;48.522;9.206;2023-08-06T14:51:48;16.80;99.90
16995;DHT22;8614;48.522;9.206;2023-08-06T14:54:15;16.70;99.90
16995;DHT22;8614;48.522;9.206;2023-08-06T14:56:43;16.80;99.90
16995;DHT22;8614;48.522;9.206;2023-08-06T14:59:10;16.70;99.90
16995;DHT22;8614;48.522;9.206;2023-08-06T15:01:36;16.70;99.90
16995;DHT22;8614;48.522;9.206;2023-08-06T15:04:03;16.70;99.90
16995;DHT22;8614;48.522;9.206;2023-08-06T15:06:30;16.90;99.90
16995;DHT22;8614;48.522;9.206;2023-08-06T15:08:57;17.20;99.90
16995;DHT22;8614;48.522;9.206;2023-08-06T15:11:26;17.30;99.90
16995;DHT22;8614;48.522;9.206;2023-08-06T15:13:54;17.50;99.90
16995;DHT22;8614;48.522;9.206;2023-08-06T15:16:21;17.40;99.90
16995;DHT22;8614;48.522;9.206;2023-08-06T15:18:48;17.30;99.90
16995;DHT22;8614;48.522;9.206;2023-08-06T15:21:15;17.00;99.90
16995;DHT22;8614;48.522;9.206;2023-08-06T15:23:42;16.90;99.90
16995;DHT22;8614;48.522;9.206;2023-08-06T15:26:09;16.70;99.90
16995;DHT22;8614;48.522;9.206;2023-08-06T15:28:36;16.50;99.90
16995;DHT22;8614;48.522;9.206;2023-08-06T15:31:05;16.50;99.90
16995;DHT22;8614;48.522;9.206;2023-08-06T15:33:33;16.50;99.90
16995;DHT22;8614;48.522;9.206;2023-08-06T15:36:00;16.50;99.90
16995;DHT22;8614;48.522;9.206;2023-08-06T15:38:27;16.60;99.90
16995;DHT22;8614;48.522;9.206;2023-08-06T15:40:54;16.70;99.90
16995;DHT22;8614;48.522;9.206;2023-08-06T15:43:24;16.70;99.90
16995;DHT22;8614;48.522;9.206;2023-08-06T15:45:50;16.90;99.90
16995;DHT22;8614;48.522;9.206;2023-08-06T15:48:18;17.00;99.90